EGHI

Southampton Airport

Airport
ICAO code
EGHI
IATA Code
SOU
Summary
ICAO Region
EUR
ICAO Territory
Location

Eastleigh,Southampton, England.,

Serving
Southampton
Elevation
44 ft
Coordinates
50° 56' 59" N , 1° 21' 23" W
KCC
Cfb
Metar
Observation
EGHI 171320Z 33003KT 300V360 9000 VCSH FEW017 BKN027CB 21/18 Q1012
Station
Southampton / Weather Centre
Date/Time
2022-08-17 13:20:00
Wind direction
330°
Wind speed
03 kts
Lowest cloud amount
few clouds
Temperature
21°C
Dew point
18°C
Humidity
83%
QNH
1012 hPa
Weather condition
n/a

Description

Small domestic and international airport serving the city of Southampton and environs; has co-located railway station.

Climatology

Temperate Marine climate/Oceanic climate (Köppen climate classification Cfb). Moderately cool summer and comparatively warm winter with a temperature range of only 14°C. Prevailing south-westerly winds from the Atlantic Ocean.

Runways

Designator Length Width Surface Rops
2/20 1723 37 ASP Yes/Yes

SKYbrary Partners:

Safety knowledge contributed by: